createdAt,value
2022-11-14T00:00:01.926Z,6.45
2022-11-14T00:02:48.260Z,6.53
2022-11-14T00:05:40.465Z,6.54
2022-11-14T01:33:20.595Z,6.60
2022-11-14T01:36:06.969Z,6.59
2022-11-14T01:39:30.719Z,6.61
2022-11-14T01:46:43.761Z,6.76
2022-11-14T01:49:42.542Z,6.67
2022-11-14T01:52:37.987Z,6.55
2022-11-14T01:55:23.249Z,6.70
2022-11-14T01:58:10.487Z,6.57
2022-11-14T02:00:57.054Z,6.54
2022-11-14T02:03:46.014Z,6.50
2022-11-14T02:06:42.112Z,6.42
2022-11-14T02:09:31.004Z,6.52
2022-11-14T02:12:19.292Z,6.50
2022-11-14T02:15:05.291Z,6.42
2022-11-14T02:17:50.947Z,6.50
2022-11-14T02:20:43.224Z,6.48
2022-11-14T02:23:30.161Z,6.57
2022-11-14T02:26:22.713Z,6.47
2022-11-14T02:29:10.245Z,6.41
2022-11-14T02:31:55.941Z,6.30
2022-11-14T02:34:42.168Z,6.30
2022-11-14T02:37:28.077Z,6.28
2022-11-14T02:40:13.486Z,6.11
2022-11-14T02:42:58.857Z,6.24
2022-11-14T02:45:44.676Z,6.07
2022-11-14T02:48:30.536Z,5.86
2022-11-14T02:51:19.239Z,5.78
2022-11-14T02:54:04.651Z,5.71
2022-11-14T02:56:50.351Z,5.68
2022-11-14T02:59:35.826Z,5.63
2022-11-14T03:02:22.111Z,5.66
2022-11-14T03:05:07.886Z,5.66
2022-11-14T03:07:54.812Z,5.77
2022-11-14T03:10:40.056Z,5.70
2022-11-14T03:13:29.431Z,5.68
2022-11-14T03:16:15.241Z,5.44
2022-11-14T03:19:00.668Z,5.39
2022-11-14T03:21:46.112Z,5.34
2022-11-14T03:24:31.721Z,5.35
2022-11-14T03:27:16.989Z,5.55
2022-11-14T03:30:02.715Z,5.63
2022-11-14T03:32:48.401Z,6.02
2022-11-14T03:35:34.300Z,6.16
2022-11-14T03:38:23.777Z,6.20
2022-11-14T03:41:09.348Z,6.20
2022-11-14T03:43:54.928Z,6.33
2022-11-14T03:46:40.102Z,6.39
2022-11-14T03:49:25.582Z,6.54
2022-11-14T03:52:13.095Z,6.52
2022-11-14T03:54:58.699Z,6.61
2022-11-14T03:57:44.206Z,6.60
2022-11-14T04:00:30.413Z,6.85
2022-11-14T04:03:15.794Z,6.87
2022-11-14T04:06:01.166Z,6.90
2022-11-14T04:08:46.969Z,6.95
2022-11-14T04:11:32.995Z,6.88
2022-11-14T04:14:18.276Z,6.91
2022-11-14T04:17:03.933Z,6.86
2022-11-14T04:19:50.494Z,6.83
2022-11-14T04:22:35.985Z,6.78
2022-11-14T04:25:22.033Z,6.68
2022-11-14T04:28:07.801Z,6.94
2022-11-14T04:30:53.677Z,6.90
2022-11-14T04:33:38.967Z,6.85
2022-11-14T04:36:25.359Z,6.97
2022-11-14T04:39:21.804Z,7.03
2022-11-14T04:45:13.491Z,7.00
2022-11-14T04:47:58.840Z,6.83
2022-11-14T04:51:11.641Z,6.84
2022-11-14T04:53:57.072Z,6.72
2022-11-14T04:56:42.657Z,6.69
2022-11-14T04:59:28.130Z,6.62
2022-11-14T05:02:13.598Z,6.58
2022-11-14T05:04:59.397Z,6.58
2022-11-14T05:07:44.726Z,6.57
2022-11-14T05:10:30.153Z,6.54
2022-11-14T05:13:15.675Z,6.56
2022-11-14T05:16:27.419Z,6.37
2022-11-14T05:19:12.968Z,6.50
2022-11-14T05:21:58.111Z,6.51
2022-11-14T05:24:43.683Z,6.63
2022-11-14T05:27:29.378Z,6.64
2022-11-14T05:30:15.347Z,6.60
2022-11-14T05:33:00.964Z,6.51
2022-11-14T05:35:47.090Z,6.52
2022-11-14T05:38:33.346Z,6.46
2022-11-14T05:41:20.278Z,6.39
2022-11-14T05:44:06.357Z,6.45
2022-11-14T05:46:51.718Z,6.38
2022-11-14T05:49:37.394Z,6.31
2022-11-14T05:52:22.650Z,6.30
2022-11-14T05:55:08.528Z,6.35
2022-11-14T05:58:09.476Z,6.41
2022-11-14T06:01:33.057Z,6.46
2022-11-14T06:04:18.654Z,6.50
2022-11-14T06:07:04.261Z,6.37
2022-11-14T06:09:49.954Z,6.36
2022-11-14T06:12:35.438Z,6.40
2022-11-14T06:15:42.962Z,6.41
2022-11-14T06:18:30.135Z,6.49
2022-11-14T06:21:35.827Z,6.52
2022-11-14T06:24:21.041Z,6.48
2022-11-14T06:27:06.581Z,6.51
2022-11-14T06:33:23.874Z,6.59
2022-11-14T06:36:10.487Z,6.66
2022-11-14T06:38:59.123Z,6.58
2022-11-14T06:41:44.526Z,6.62
2022-11-14T06:44:31.317Z,6.66
2022-11-14T06:47:17.652Z,6.63
2022-11-14T06:50:06.197Z,6.71
2022-11-14T06:52:52.179Z,6.64
2022-11-14T06:55:37.869Z,6.70
2022-11-14T06:58:29.834Z,6.81
2022-11-14T07:16:48.486Z,6.94
2022-11-14T07:23:25.963Z,7.01
2022-11-14T07:26:11.735Z,7.00
2022-11-14T07:29:02.066Z,6.99
2022-11-14T07:31:48.243Z,6.99
2022-11-14T07:34:33.914Z,6.96
2022-11-14T07:58:36.453Z,7.45
2022-11-14T08:01:22.107Z,7.50
2022-11-14T08:46:13.862Z,8.69
2022-11-14T08:48:59.389Z,8.72
2022-11-14T08:51:45.114Z,8.97
2022-11-14T08:54:30.247Z,9.77
2022-11-14T08:57:16.877Z,10.60
2022-11-14T09:00:02.610Z,11.31
2022-11-14T09:02:47.838Z,11.71
2022-11-14T09:05:33.842Z,11.88
2022-11-14T09:08:19.465Z,12.36
2022-11-14T09:11:09.247Z,13.09
2022-11-14T09:13:55.268Z,12.34
2022-11-14T09:16:41.079Z,11.89
2022-11-14T09:19:26.303Z,11.25
2022-11-14T09:22:11.768Z,10.73
2022-11-14T09:24:57.192Z,10.26
2022-11-14T09:27:42.849Z,9.93
2022-11-14T09:30:29.212Z,9.80
2022-11-14T09:33:14.324Z,9.76
2022-11-14T09:36:01.240Z,9.68
2022-11-14T09:38:46.557Z,9.67
2022-11-14T09:41:38.169Z,9.72
2022-11-14T09:44:43.125Z,9.91
2022-11-14T09:47:41.004Z,10.18
2022-11-14T09:50:32.669Z,10.38
2022-11-14T09:53:18.002Z,10.53
2022-11-14T09:56:03.332Z,10.87
2022-11-14T09:58:48.736Z,11.26
2022-11-14T10:01:49.540Z,11.29
2022-11-14T10:05:03.015Z,10.82
2022-11-14T10:08:16.181Z,10.81
2022-11-14T10:11:16.553Z,10.69
2022-11-14T10:14:07.967Z,10.39
2022-11-14T10:17:37.709Z,10.62
2022-11-14T10:20:26.261Z,10.72
2022-11-14T10:23:49.753Z,10.58
2022-11-14T10:26:43.121Z,10.50
2022-11-14T10:29:38.780Z,10.52
2022-11-14T10:32:24.012Z,10.60
2022-11-14T10:35:19.124Z,10.61
2022-11-14T10:38:07.289Z,10.62
2022-11-14T10:41:01.300Z,10.67
2022-11-14T10:43:51.251Z,10.76
2022-11-14T10:46:40.427Z,11.28
2022-11-14T10:49:26.314Z,11.23
2022-11-14T10:52:16.692Z,11.75
2022-11-14T10:55:17.612Z,11.93
2022-11-14T10:58:10.253Z,12.23
2022-11-14T11:00:56.061Z,12.77
2022-11-14T11:03:44.144Z,13.29
2022-11-14T11:06:29.725Z,13.56
2022-11-14T11:09:42.201Z,13.48
2022-11-14T11:12:50.234Z,13.03
2022-11-14T11:15:43.185Z,12.37
2022-11-14T11:18:33.999Z,12.07
2022-11-14T11:21:22.782Z,12.31
2022-11-14T11:24:09.175Z,11.83
2022-11-14T11:27:22.983Z,11.60
2022-11-14T11:30:29.042Z,11.38
2022-11-14T11:33:21.314Z,11.55
2022-11-14T11:36:20.210Z,11.45
2022-11-14T11:39:08.074Z,11.38
2022-11-14T11:42:09.267Z,11.33
2022-11-14T11:45:00.020Z,11.25
2022-11-14T11:47:53.554Z,11.11
2022-11-14T11:50:39.418Z,11.19
2022-11-14T11:53:32.055Z,11.18
2022-11-14T11:56:30.118Z,10.96
2022-11-14T11:59:28.907Z,10.96
2022-11-14T12:02:23.580Z,11.12
2022-11-14T12:05:15.609Z,10.87
2022-11-14T12:08:04.700Z,10.89
2022-11-14T12:10:51.734Z,10.79
2022-11-14T12:13:43.093Z,10.75
2022-11-14T12:16:34.692Z,10.68
2022-11-14T12:20:01.990Z,10.66
2022-11-14T12:23:17.963Z,10.74
2022-11-14T12:26:24.875Z,10.74
2022-11-14T12:29:25.622Z,10.75
2022-11-14T12:32:18.904Z,10.77
2022-11-14T12:35:08.162Z,10.78
2022-11-14T12:37:56.441Z,10.76
2022-11-14T12:40:49.256Z,10.74
2022-11-14T12:43:39.929Z,10.61
2022-11-14T12:46:28.183Z,10.59
2022-11-14T12:49:47.632Z,10.53
2022-11-14T12:52:44.735Z,10.38
2022-11-14T12:55:29.711Z,10.44
2022-11-14T12:58:31.833Z,10.47
2022-11-14T13:01:31.885Z,10.36
2022-11-14T13:04:35.771Z,10.34
2022-11-14T13:07:45.400Z,10.38
2022-11-14T13:10:37.003Z,10.20
2022-11-14T13:13:41.887Z,10.29
2022-11-14T13:16:50.192Z,10.24
2022-11-14T13:19:53.982Z,10.19
2022-11-14T13:22:39.305Z,10.20
2022-11-14T13:25:25.319Z,10.18
2022-11-14T13:28:51.407Z,10.18
2022-11-14T13:31:36.547Z,10.21
2022-11-14T13:34:28.517Z,10.20
2022-11-14T13:37:51.914Z,10.11
2022-11-14T13:40:44.962Z,10.08
2022-11-14T13:44:01.694Z,9.97
2022-11-14T13:47:25.634Z,9.96
2022-11-14T13:50:16.545Z,9.96
2022-11-14T13:53:02.029Z,9.97
2022-11-14T13:56:04.411Z,9.95
2022-11-14T13:58:56.695Z,9.94
2022-11-14T14:02:14.328Z,9.97
2022-11-14T14:05:27.623Z,10.02
2022-11-14T14:08:45.972Z,9.98
2022-11-14T14:11:31.945Z,9.92
2022-11-14T14:14:41.491Z,9.87
2022-11-14T14:17:44.478Z,9.82
2022-11-14T14:20:36.410Z,9.76
2022-11-14T14:23:34.095Z,9.68
2022-11-14T14:27:01.684Z,9.64
2022-11-14T14:29:53.048Z,9.52
2022-11-14T14:32:38.930Z,9.55
2022-11-14T14:35:37.145Z,9.55
2022-11-14T14:38:28.440Z,9.59
2022-11-14T14:41:16.695Z,9.53
2022-11-14T16:19:41.341Z,8.32
2022-11-14T16:22:27.164Z,8.27
2022-11-14T16:25:22.709Z,8.25
2022-11-14T16:28:08.775Z,8.34
2022-11-14T17:01:25.149Z,8.01
2022-11-14T17:04:10.946Z,7.92
2022-11-14T17:06:56.964Z,8.04
2022-11-14T17:09:42.395Z,8.06
2022-11-14T17:12:28.309Z,8.07
2022-11-14T17:15:13.557Z,8.17
2022-11-14T17:17:58.979Z,8.17
2022-11-14T17:20:45.083Z,8.10
2022-11-14T17:23:31.134Z,8.11
2022-11-14T17:26:17.297Z,8.10
2022-11-14T17:29:04.719Z,8.06
2022-11-14T17:31:51.027Z,8.07
2022-11-14T17:34:37.605Z,8.10
2022-11-14T17:37:23.229Z,8.09
2022-11-14T17:40:15.298Z,8.14
2022-11-14T17:43:01.006Z,8.24
2022-11-14T17:45:54.650Z,8.23
2022-11-14T17:48:40.336Z,8.10
2022-11-14T17:51:25.864Z,8.17
2022-11-14T17:54:11.633Z,8.16
2022-11-14T17:56:58.994Z,7.97
2022-11-14T17:59:46.328Z,7.98
2022-11-14T18:02:31.702Z,8.03
2022-11-14T18:05:17.217Z,8.00
2022-11-14T18:08:02.603Z,8.03
2022-11-14T18:10:48.101Z,8.05
2022-11-14T18:13:33.915Z,7.97
2022-11-14T18:16:20.212Z,7.92
2022-11-14T18:19:05.816Z,7.88
2022-11-14T18:21:53.870Z,7.95
2022-11-14T18:24:43.330Z,7.82
2022-11-14T18:27:28.576Z,7.71
2022-11-14T18:30:39.647Z,7.82
2022-11-14T18:33:19.710Z,7.86
2022-11-14T18:36:09.001Z,7.60
2022-11-14T18:38:55.926Z,7.53
2022-11-14T18:41:41.201Z,7.66
2022-11-14T18:44:27.862Z,7.59
2022-11-14T18:47:13.024Z,7.35
2022-11-14T18:50:00.039Z,7.33
2022-11-14T18:52:45.690Z,7.20
2022-11-14T18:55:31.160Z,7.35
2022-11-14T18:58:16.528Z,7.34
2022-11-14T19:01:37.773Z,7.19
2022-11-14T19:04:23.619Z,6.94
2022-11-14T19:07:10.035Z,7.20
2022-11-14T19:09:55.898Z,7.10
2022-11-14T19:12:42.744Z,7.12
2022-11-14T19:15:28.289Z,7.11
2022-11-14T19:18:13.704Z,7.10
2022-11-14T19:21:01.667Z,6.91
2022-11-14T19:23:47.603Z,6.78
2022-11-14T19:26:34.112Z,6.88
2022-11-14T19:29:19.984Z,7.04
2022-11-14T19:32:14.088Z,7.05
2022-11-14T19:35:02.037Z,7.19
2022-11-14T19:37:54.255Z,7.27
2022-11-14T19:40:40.889Z,7.28
2022-11-14T19:43:27.318Z,7.38
2022-11-14T19:46:13.418Z,7.24
2022-11-14T19:49:01.081Z,7.29
2022-11-14T19:51:47.683Z,7.25
2022-11-14T19:54:33.801Z,7.27
2022-11-14T19:57:19.963Z,7.26
2022-11-14T20:00:06.159Z,7.31
2022-11-14T20:02:52.151Z,7.27
2022-11-14T20:10:02.000Z,6.99
2022-11-14T20:12:49.076Z,6.96
2022-11-14T20:15:35.046Z,6.93
2022-11-14T20:18:23.601Z,6.92
2022-11-14T20:21:16.345Z,7.03
2022-11-14T20:24:07.568Z,7.00
2022-11-14T20:26:54.739Z,7.00
2022-11-14T20:29:40.770Z,6.89
2022-11-14T20:32:27.251Z,6.82
2022-11-14T20:35:13.723Z,6.77
2022-11-14T20:38:04.439Z,6.85
2022-11-14T20:45:11.067Z,7.16
2022-11-14T20:47:56.929Z,7.18
2022-11-14T20:50:42.645Z,7.20
2022-11-14T20:53:28.651Z,7.28
2022-11-14T20:56:16.369Z,7.30
2022-11-14T20:59:02.192Z,7.28
2022-11-14T21:01:47.672Z,7.39
2022-11-14T21:04:32.948Z,7.33
2022-11-14T21:07:18.665Z,7.50
2022-11-14T21:10:24.560Z,7.38
2022-11-14T21:13:32.938Z,7.28
2022-11-14T21:16:19.368Z,7.21
2022-11-14T21:19:05.633Z,7.29
2022-11-14T21:21:51.390Z,7.27
2022-11-14T21:24:39.618Z,7.15
2022-11-14T21:27:25.042Z,7.33
2022-11-14T21:30:10.755Z,7.28
2022-11-14T21:32:55.935Z,7.26
2022-11-14T21:35:41.458Z,7.25
2022-11-14T21:38:27.488Z,7.05
2022-11-14T21:41:16.522Z,7.15
2022-11-14T21:44:03.716Z,7.28
2022-11-14T21:46:49.724Z,7.09
2022-11-14T21:49:34.938Z,7.12
2022-11-14T21:52:20.561Z,7.33
2022-11-14T21:55:06.442Z,7.64
2022-11-14T21:57:55.007Z,7.64
2022-11-14T22:00:41.329Z,7.64
2022-11-14T22:03:46.869Z,7.57
2022-11-14T22:06:32.308Z,7.53
2022-11-14T22:09:17.835Z,7.59
2022-11-14T22:12:03.551Z,7.46
2022-11-14T22:14:48.860Z,7.38
2022-11-14T22:17:34.342Z,7.32
2022-11-14T22:20:20.251Z,7.36
2022-11-14T22:23:05.299Z,7.38
2022-11-14T22:25:58.711Z,7.23
2022-11-14T22:28:44.227Z,7.21
2022-11-14T22:31:29.876Z,7.16
2022-11-14T22:34:15.339Z,7.24
2022-11-14T22:37:00.823Z,7.18
2022-11-14T22:39:46.795Z,7.08
2022-11-14T22:42:32.314Z,7.08
2022-11-14T22:45:17.897Z,7.19
2022-11-14T22:48:03.559Z,7.17
2022-11-14T22:51:07.432Z,7.18
2022-11-14T22:53:55.099Z,7.08
2022-11-14T22:56:40.394Z,6.99
2022-11-14T22:59:26.469Z,6.90
2022-11-14T23:18:03.189Z,7.06
2022-11-14T23:20:48.671Z,7.07
2022-11-14T23:23:34.526Z,7.01
2022-11-14T23:26:20.749Z,6.94
2022-11-14T23:29:06.326Z,6.97
2022-11-14T23:31:51.501Z,7.03
2022-11-14T23:34:37.645Z,6.95
2022-11-14T23:37:23.259Z,6.71
2022-11-14T23:40:10.378Z,6.71
2022-11-14T23:42:55.578Z,6.69
2022-11-14T23:45:43.248Z,6.63
2022-11-14T23:48:29.149Z,6.66
2022-11-14T23:51:14.401Z,6.55
2022-11-14T23:53:59.703Z,6.52
2022-11-14T23:56:45.418Z,6.31
2022-11-14T23:59:31.037Z,6.41
